createdAt,value
2018-06-17T00:02:16.723Z,94.30
2018-06-17T00:04:45.012Z,94.40
2018-06-17T00:07:13.733Z,94.40
2018-06-17T00:09:41.936Z,94.50
2018-06-17T00:12:10.365Z,94.70
2018-06-17T00:14:38.601Z,94.90
2018-06-17T00:17:06.914Z,94.90
2018-06-17T00:19:35.170Z,95.10
2018-06-17T00:22:03.449Z,95.20
2018-06-17T00:24:31.717Z,95.40
2018-06-17T00:26:59.981Z,95.50
2018-06-17T00:29:28.199Z,95.80
2018-06-17T00:31:56.412Z,95.90
2018-06-17T00:34:24.598Z,96.20
2018-06-17T00:36:52.831Z,96.30
2018-06-17T00:41:49.184Z,96.40
2018-06-17T00:44:17.419Z,96.40
2018-06-17T00:46:45.642Z,96.50
2018-06-17T00:49:13.878Z,96.50
2018-06-17T00:51:42.135Z,96.50
2018-06-17T00:54:10.385Z,96.60
2018-06-17T00:59:06.620Z,96.70
2018-06-17T01:01:34.873Z,96.70
2018-06-17T01:04:03.081Z,96.70
2018-06-17T01:06:31.259Z,96.90
2018-06-17T01:08:59.506Z,96.90
2018-06-17T01:11:27.770Z,97.00
2018-06-17T01:13:56.136Z,97.00
2018-06-17T01:16:24.318Z,97.10
2018-06-17T01:18:52.627Z,97.10
2018-06-17T01:21:20.859Z,97.10
2018-06-17T01:23:49.106Z,97.10
2018-06-17T01:26:17.356Z,97.10
2018-06-17T01:28:45.632Z,97.20
2018-06-17T01:31:13.900Z,97.30
2018-06-17T01:33:42.151Z,97.40
2018-06-17T01:36:10.332Z,97.50
2018-06-17T01:41:06.738Z,97.70
2018-06-17T01:43:34.981Z,97.80
2018-06-17T01:46:03.245Z,97.90
2018-06-17T01:48:31.470Z,97.80
2018-06-17T01:50:59.731Z,97.90
2018-06-17T01:53:27.964Z,97.90
2018-06-17T01:55:56.216Z,98.20
2018-06-17T01:58:24.478Z,97.90
2018-06-17T02:00:53.424Z,97.90
2018-06-17T02:03:27.069Z,97.90
2018-06-17T02:06:00.470Z,98.20
2018-06-17T02:08:34.186Z,97.90
2018-06-17T02:11:07.736Z,97.90
2018-06-17T02:13:36.010Z,97.90
2018-06-17T02:16:04.264Z,97.90
2018-06-17T02:18:32.508Z,98.00
2018-06-17T02:23:28.775Z,98.00
2018-06-17T02:25:57.004Z,97.90
2018-06-17T02:28:25.294Z,97.90
2018-06-17T02:30:53.485Z,97.90
2018-06-17T02:33:22.708Z,97.90
2018-06-17T02:35:50.948Z,97.90
2018-06-17T02:38:19.194Z,97.90
2018-06-17T02:40:47.462Z,98.00
2018-06-17T02:43:15.746Z,98.00
2018-06-17T02:45:49.374Z,98.10
2018-06-17T02:48:23.032Z,98.10
2018-06-17T02:50:56.691Z,98.20
2018-06-17T02:55:31.584Z,98.20
2018-06-17T02:57:59.804Z,98.30
2018-06-17T03:00:28.013Z,98.40
2018-06-17T03:02:56.200Z,98.60
2018-06-17T03:05:24.416Z,98.70
2018-06-17T03:07:52.662Z,98.80
2018-06-17T03:10:20.914Z,98.80
2018-06-17T03:12:49.189Z,99.00
2018-06-17T03:15:17.432Z,99.20
2018-06-17T03:17:45.707Z,99.40
2018-06-17T03:20:13.964Z,99.40
2018-06-17T03:22:42.224Z,99.50
2018-06-17T03:25:15.845Z,99.60
2018-06-17T03:27:49.469Z,99.70
2018-06-17T03:30:23.113Z,99.70
2018-06-17T03:32:56.665Z,99.80
2018-06-17T03:35:30.245Z,99.90
2018-06-17T03:37:58.487Z,99.90
2018-06-17T03:40:26.691Z,99.90
2018-06-17T03:42:54.870Z,99.90
2018-06-17T03:45:23.047Z,99.90
2018-06-17T03:47:51.309Z,99.90
2018-06-17T03:50:19.630Z,99.90
2018-06-17T03:52:47.907Z,99.90
2018-06-17T03:55:16.178Z,99.90
2018-06-17T03:57:44.426Z,99.90
2018-06-17T04:00:12.711Z,99.90
2018-06-17T04:05:14.253Z,99.90
2018-06-17T04:07:42.517Z,99.90
2018-06-17T04:10:10.732Z,99.90
2018-06-17T04:12:38.997Z,99.90
2018-06-17T04:15:07.283Z,99.90
2018-06-17T04:17:35.548Z,99.90
2018-06-17T04:20:03.751Z,99.90
2018-06-17T04:22:32.024Z,99.90
2018-06-17T04:25:00.278Z,99.90
2018-06-17T04:27:28.455Z,99.90
2018-06-17T04:29:56.679Z,99.90
2018-06-17T04:32:24.930Z,99.90
2018-06-17T04:34:53.177Z,99.90
2018-06-17T04:37:21.421Z,99.90
2018-06-17T04:39:49.622Z,99.90
2018-06-17T04:42:17.811Z,99.70
2018-06-17T04:44:46.049Z,99.50
2018-06-17T04:47:14.325Z,99.40
2018-06-17T04:49:42.520Z,99.40
2018-06-17T04:52:10.740Z,99.40
2018-06-17T04:54:38.983Z,99.30
2018-06-17T04:59:35.631Z,99.10
2018-06-17T05:02:03.843Z,99.00
2018-06-17T05:04:32.055Z,99.10
2018-06-17T05:07:00.331Z,98.90
2018-06-17T05:09:28.627Z,98.80
2018-06-17T05:11:56.859Z,98.70
2018-06-17T05:16:53.076Z,98.40
2018-06-17T05:19:21.329Z,98.10
2018-06-17T05:21:49.527Z,98.10
2018-06-17T05:24:17.737Z,97.30
2018-06-17T05:26:45.980Z,97.40
2018-06-17T05:29:14.321Z,97.40
2018-06-17T05:31:42.463Z,97.20
2018-06-17T05:34:10.745Z,97.00
2018-06-17T05:36:38.997Z,96.70
2018-06-17T05:39:10.828Z,96.70
2018-06-17T05:44:07.263Z,96.60
2018-06-17T05:46:36.091Z,96.30
2018-06-17T05:49:04.582Z,96.20
2018-06-17T05:51:33.377Z,96.70
2018-06-17T05:54:01.538Z,96.20
2018-06-17T05:56:29.842Z,96.00
2018-06-17T05:58:58.038Z,95.70
2018-06-17T06:01:27.265Z,95.60
2018-06-17T06:03:55.547Z,95.50
2018-06-17T06:06:23.723Z,95.60
2018-06-17T06:08:51.999Z,95.70
2018-06-17T06:11:20.253Z,95.40
2018-06-17T06:13:48.425Z,95.20
2018-06-17T06:16:16.643Z,95.10
2018-06-17T06:18:44.888Z,94.70
2018-06-17T06:21:13.085Z,94.50
2018-06-17T06:23:41.344Z,94.30
2018-06-17T06:26:09.565Z,94.20
2018-06-17T06:28:37.865Z,94.00
2018-06-17T06:31:06.071Z,93.00
2018-06-17T06:33:34.329Z,91.70
2018-06-17T06:36:02.496Z,91.50
2018-06-17T06:38:30.712Z,90.80
2018-06-17T06:40:58.974Z,90.60
2018-06-17T06:43:27.222Z,89.90
2018-06-17T06:52:39.301Z,89.20
2018-06-17T06:57:35.593Z,87.50
2018-06-17T07:00:03.837Z,86.60
2018-06-17T07:02:43.286Z,87.00
2018-06-17T07:07:56.475Z,86.50
2018-06-17T07:10:27.758Z,86.10
2018-06-17T07:12:55.959Z,85.10
2018-06-17T07:15:36.879Z,83.20
2018-06-17T07:18:16.531Z,82.90
2018-06-17T07:20:45.184Z,82.50
2018-06-17T07:23:13.383Z,82.90
2018-06-17T07:26:54.081Z,83.20
2018-06-17T07:29:34.837Z,83.00
2018-06-17T07:32:03.109Z,83.00
2018-06-17T07:34:31.387Z,82.70
2018-06-17T07:40:47.325Z,82.70
2018-06-17T07:43:15.570Z,82.60
2018-06-17T07:45:43.833Z,80.00
2018-06-17T07:48:15.994Z,79.40
2018-06-17T07:50:55.619Z,79.80
2018-06-17T07:53:23.812Z,80.00
2018-06-17T07:55:52.074Z,80.70
2018-06-17T07:58:20.321Z,81.70
2018-06-17T08:00:48.512Z,81.30
2018-06-17T08:03:16.732Z,81.40
2018-06-17T08:05:44.903Z,80.40
2018-06-17T08:08:13.173Z,80.40
2018-06-17T08:10:41.427Z,80.40
2018-06-17T08:13:09.543Z,79.50
2018-06-17T08:15:37.763Z,80.10
2018-06-17T08:18:06.034Z,79.00
2018-06-17T08:20:35.249Z,78.20
2018-06-17T08:23:03.429Z,77.80
2018-06-17T08:25:31.640Z,77.40
2018-06-17T08:28:00.062Z,78.60
2018-06-17T08:30:28.408Z,78.20
2018-06-17T08:32:56.621Z,77.80
2018-06-17T08:35:24.811Z,78.30
2018-06-17T08:37:53.080Z,78.20
2018-06-17T08:40:21.324Z,77.30
2018-06-17T08:42:49.587Z,76.70
2018-06-17T08:45:17.796Z,75.60
2018-06-17T08:47:45.978Z,75.80
2018-06-17T08:50:14.245Z,75.70
2018-06-17T08:52:42.514Z,75.90
2018-06-17T08:55:10.790Z,76.00
2018-06-17T08:57:38.998Z,75.90
2018-06-17T09:00:07.299Z,74.20
2018-06-17T09:02:35.538Z,74.80
2018-06-17T09:05:03.807Z,74.30
2018-06-17T09:07:32.094Z,73.70
2018-06-17T09:10:00.511Z,74.30
2018-06-17T09:12:28.795Z,72.70
2018-06-17T09:14:56.999Z,72.20
2018-06-17T09:17:25.276Z,73.00
2018-06-17T09:19:53.463Z,71.80
2018-06-17T09:22:21.710Z,71.00
2018-06-17T09:24:49.921Z,71.50
2018-06-17T09:27:18.166Z,72.70
2018-06-17T09:29:46.429Z,73.00
2018-06-17T09:32:14.709Z,71.10
2018-06-17T09:34:42.979Z,71.50
2018-06-17T09:39:39.692Z,71.00
2018-06-17T09:42:07.959Z,71.00
2018-06-17T09:44:36.210Z,68.50
2018-06-17T09:47:04.485Z,66.70
2018-06-17T09:49:32.684Z,65.20
2018-06-17T09:52:00.982Z,66.50
2018-06-17T09:54:29.221Z,66.20
2018-06-17T09:59:25.547Z,64.40
2018-06-17T10:01:53.753Z,63.80
2018-06-17T10:04:22.010Z,61.20
2018-06-17T10:06:50.268Z,61.50
2018-06-17T10:09:18.518Z,61.00
2018-06-17T10:11:47.381Z,61.00
2018-06-17T10:14:15.630Z,59.90
2018-06-17T10:16:43.928Z,59.60
2018-06-17T10:19:12.201Z,59.10
2018-06-17T10:21:40.403Z,58.00
2018-06-17T10:24:08.619Z,58.80
2018-06-17T10:26:36.806Z,59.50
2018-06-17T10:29:05.069Z,58.60
2018-06-17T10:31:33.298Z,57.30
2018-06-17T10:34:01.562Z,57.50
2018-06-17T10:36:29.797Z,58.90
2018-06-17T10:38:58.056Z,56.50
2018-06-17T10:41:26.243Z,54.30
2018-06-17T10:43:54.517Z,53.80
2018-06-17T10:46:22.785Z,53.20
2018-06-17T10:48:51.089Z,53.80
2018-06-17T10:51:19.294Z,51.40
2018-06-17T10:53:47.490Z,52.50
2018-06-17T10:56:15.732Z,50.60
2018-06-17T10:58:43.926Z,50.90
2018-06-17T11:01:12.222Z,49.30
2018-06-17T11:03:40.502Z,51.50
2018-06-17T11:06:08.689Z,50.00
2018-06-17T11:08:36.938Z,48.70
2018-06-17T11:11:05.198Z,48.10
2018-06-17T11:13:33.394Z,48.40
2018-06-17T11:18:29.689Z,48.00
2018-06-17T11:20:57.923Z,48.00
2018-06-17T11:23:26.194Z,47.30
2018-06-17T11:25:54.404Z,48.10
2018-06-17T11:28:22.634Z,48.60
2018-06-17T11:30:50.916Z,48.70
2018-06-17T11:33:19.164Z,50.90
2018-06-17T11:35:47.409Z,52.50
2018-06-17T11:40:43.742Z,53.40
2018-06-17T11:43:12.018Z,53.40
2018-06-17T11:45:40.258Z,53.50
2018-06-17T11:48:08.528Z,53.70
2018-06-17T11:50:36.723Z,54.00
2018-06-17T11:53:04.969Z,54.00
2018-06-17T11:58:01.427Z,51.00
2018-06-17T12:00:29.674Z,51.70
2018-06-17T12:02:57.873Z,50.90
2018-06-17T12:05:26.168Z,49.20
2018-06-17T12:07:54.395Z,49.10
2018-06-17T12:10:22.630Z,47.90
2018-06-17T12:12:50.898Z,48.40
2018-06-17T12:15:19.128Z,48.10
2018-06-17T12:17:47.402Z,49.20
2018-06-17T12:20:15.596Z,49.10
2018-06-17T12:22:43.799Z,49.10
2018-06-17T12:25:12.019Z,49.00
2018-06-17T12:27:40.282Z,49.00
2018-06-17T12:30:08.551Z,48.70
2018-06-17T12:32:36.803Z,47.70
2018-06-17T12:35:05.115Z,49.00
2018-06-17T12:37:33.368Z,49.40
2018-06-17T12:40:01.643Z,50.60
2018-06-17T12:42:29.885Z,51.70
2018-06-17T12:44:58.086Z,51.70
2018-06-17T12:47:26.351Z,52.50
2018-06-17T12:49:54.751Z,53.20
2018-06-17T12:52:22.992Z,53.20
2018-06-17T12:54:51.200Z,54.10
2018-06-17T12:57:19.449Z,54.60
2018-06-17T12:59:47.697Z,54.40
2018-06-17T13:02:15.911Z,54.20
2018-06-17T13:04:44.220Z,54.30
2018-06-17T13:07:12.448Z,54.30
2018-06-17T13:09:40.713Z,54.80
2018-06-17T13:12:08.976Z,54.30
2018-06-17T13:14:37.153Z,55.30
2018-06-17T13:17:05.534Z,55.00
2018-06-17T13:19:33.819Z,55.30
2018-06-17T13:22:02.071Z,54.50
2018-06-17T13:24:30.281Z,54.20
2018-06-17T13:26:58.536Z,54.40
2018-06-17T13:29:26.735Z,54.50
2018-06-17T13:31:54.928Z,54.90
2018-06-17T13:34:23.182Z,55.90
2018-06-17T13:36:51.400Z,56.90
2018-06-17T13:39:19.596Z,56.60
2018-06-17T13:41:47.850Z,55.60
2018-06-17T13:44:16.033Z,54.10
2018-06-17T13:46:44.229Z,53.20
2018-06-17T13:49:12.510Z,51.90
2018-06-17T13:51:40.697Z,52.30
2018-06-17T13:54:08.966Z,53.50
2018-06-17T13:56:37.212Z,54.30
2018-06-17T13:59:05.448Z,54.40
2018-06-17T14:01:33.635Z,54.90
2018-06-17T14:04:01.920Z,55.90
2018-06-17T14:06:30.178Z,56.00
2018-06-17T14:08:58.354Z,56.10
2018-06-17T14:11:26.557Z,57.00
2018-06-17T14:13:54.801Z,56.70
2018-06-17T14:16:23.058Z,57.00
2018-06-17T14:18:51.283Z,56.80
2018-06-17T14:21:19.439Z,56.60
2018-06-17T14:23:47.663Z,58.00
2018-06-17T14:26:15.880Z,58.70
2018-06-17T14:28:44.145Z,58.80
2018-06-17T14:31:12.437Z,59.50
2018-06-17T14:33:40.629Z,59.10
2018-06-17T14:36:08.866Z,58.60
2018-06-17T14:38:37.112Z,58.90
2018-06-17T14:41:20.672Z,60.20
2018-06-17T14:43:54.164Z,59.30
2018-06-17T14:46:27.817Z,58.60
2018-06-17T14:49:01.372Z,58.70
2018-06-17T14:51:34.845Z,58.70
2018-06-17T14:54:03.067Z,58.60
2018-06-17T14:58:59.539Z,59.10
2018-06-17T15:01:27.778Z,58.00
2018-06-17T15:03:56.023Z,57.50
2018-06-17T15:06:24.273Z,57.00
2018-06-17T15:08:52.473Z,56.80
2018-06-17T15:11:20.683Z,56.80
2018-06-17T15:13:48.897Z,57.90
2018-06-17T15:16:17.126Z,58.60
2018-06-17T15:18:45.320Z,58.50
2018-06-17T15:21:13.531Z,58.20
2018-06-17T15:23:41.723Z,59.10
2018-06-17T15:26:09.980Z,59.50
2018-06-17T15:28:38.529Z,59.80
2018-06-17T15:33:15.618Z,59.70
2018-06-17T15:35:49.112Z,60.20
2018-06-17T15:40:56.281Z,60.00
2018-06-17T15:43:24.698Z,59.80
2018-06-17T15:45:52.915Z,60.00
2018-06-17T15:48:21.176Z,60.50
2018-06-17T15:50:49.620Z,61.00
2018-06-17T15:53:17.804Z,60.70
2018-06-17T15:55:45.984Z,60.70
2018-06-17T15:58:14.484Z,60.80
2018-06-17T16:00:42.770Z,60.80
2018-06-17T16:05:39.244Z,61.00
2018-06-17T16:08:07.438Z,60.60
2018-06-17T16:10:35.680Z,60.90
2018-06-17T16:13:09.228Z,61.70
2018-06-17T16:15:42.853Z,62.30
2018-06-17T16:18:16.537Z,62.70
2018-06-17T16:20:50.194Z,62.80
2018-06-17T16:23:18.448Z,63.30
2018-06-17T16:25:46.615Z,63.80
2018-06-17T16:28:14.807Z,64.20
2018-06-17T16:30:43.278Z,64.50
2018-06-17T16:33:11.579Z,64.30
2018-06-17T16:35:39.747Z,65.20
2018-06-17T16:38:07.984Z,65.20
2018-06-17T16:40:36.257Z,65.10
2018-06-17T16:43:04.541Z,65.60
2018-06-17T16:45:32.803Z,65.90
2018-06-17T16:48:00.982Z,66.00
2018-06-17T16:50:29.258Z,65.80
2018-06-17T16:53:02.902Z,66.80
2018-06-17T16:55:36.534Z,66.90
2018-06-17T16:58:10.046Z,66.10
2018-06-17T17:00:38.271Z,66.00
2018-06-17T17:03:06.544Z,67.00
2018-06-17T17:05:34.792Z,66.30
2018-06-17T17:08:03.022Z,66.50
2018-06-17T17:10:31.614Z,66.40
2018-06-17T17:12:59.842Z,66.40
2018-06-17T17:15:28.031Z,66.40
2018-06-17T17:17:56.279Z,65.10
2018-06-17T17:20:24.521Z,62.70
2018-06-17T17:22:52.926Z,61.70
2018-06-17T17:25:21.589Z,59.80
2018-06-17T17:27:49.799Z,61.00
2018-06-17T17:30:18.056Z,59.80
2018-06-17T17:32:51.694Z,59.90
2018-06-17T17:35:25.414Z,61.30
2018-06-17T17:37:59.101Z,61.00
2018-06-17T17:40:32.734Z,61.30
2018-06-17T17:43:01.014Z,62.60
2018-06-17T17:45:35.708Z,63.70
2018-06-17T17:48:03.919Z,63.90
2018-06-17T17:50:32.182Z,63.50
2018-06-17T17:53:00.421Z,62.60
2018-06-17T17:55:28.683Z,62.90
2018-06-17T17:57:56.947Z,62.70
2018-06-17T18:00:25.314Z,62.90
2018-06-17T18:02:53.585Z,63.20
2018-06-17T18:05:21.792Z,63.60
2018-06-17T18:07:50.078Z,64.20
2018-06-17T18:10:18.345Z,64.00
2018-06-17T18:12:46.552Z,65.00
2018-06-17T18:15:14.769Z,65.20
2018-06-17T18:17:42.985Z,65.90
2018-06-17T18:20:11.230Z,66.30
2018-06-17T18:22:39.402Z,66.60
2018-06-17T18:25:12.995Z,66.70
2018-06-17T18:27:46.710Z,68.10
2018-06-17T18:32:53.768Z,68.30
2018-06-17T18:35:27.469Z,69.10
2018-06-17T18:37:55.758Z,70.20
2018-06-17T18:40:23.953Z,70.30
2018-06-17T18:42:52.164Z,70.50
2018-06-17T18:45:20.369Z,70.90
2018-06-17T18:47:49.414Z,70.90
2018-06-17T18:50:17.666Z,71.50
2018-06-17T18:52:45.974Z,71.60
2018-06-17T18:55:14.267Z,72.10
2018-06-17T18:57:42.501Z,72.60
2018-06-17T19:00:10.716Z,72.70
2018-06-17T19:02:38.977Z,72.40
2018-06-17T19:05:07.285Z,72.60
2018-06-17T19:07:35.583Z,72.30
2018-06-17T19:10:09.226Z,72.70
2018-06-17T19:12:42.891Z,72.90
2018-06-17T19:17:50.112Z,73.20
2018-06-17T19:20:18.321Z,73.20
2018-06-17T19:22:46.572Z,73.30
2018-06-17T19:25:15.806Z,73.90
2018-06-17T19:27:44.098Z,73.90
2018-06-17T19:30:12.377Z,73.50
2018-06-17T19:32:40.763Z,74.10
2018-06-17T19:35:08.969Z,74.00
2018-06-17T19:37:37.284Z,74.10
2018-06-17T19:40:06.016Z,74.80
2018-06-17T19:42:34.191Z,75.40
2018-06-17T19:45:02.436Z,75.70
2018-06-17T19:47:30.702Z,76.20
2018-06-17T19:50:04.434Z,76.70
2018-06-17T19:52:38.072Z,77.30
2018-06-17T19:57:14.002Z,77.70
2018-06-17T19:59:47.521Z,78.10
2018-06-17T20:04:43.829Z,79.30
2018-06-17T20:07:12.154Z,79.70
2018-06-17T20:09:40.400Z,80.50
2018-06-17T20:12:08.708Z,80.80
2018-06-17T20:14:36.930Z,81.00
2018-06-17T20:17:05.211Z,81.10
2018-06-17T20:19:33.654Z,81.40
2018-06-17T20:22:01.921Z,81.80
2018-06-17T20:24:30.123Z,82.00
2018-06-17T20:26:58.799Z,82.20
2018-06-17T20:29:27.079Z,82.60
2018-06-17T20:32:00.614Z,83.00
2018-06-17T20:34:34.296Z,83.30
2018-06-17T20:37:07.905Z,83.20
2018-06-17T20:39:41.519Z,83.50
2018-06-17T20:42:15.127Z,83.70
2018-06-17T20:44:43.251Z,83.90
2018-06-17T20:47:12.737Z,84.40
2018-06-17T20:49:40.934Z,84.80
2018-06-17T20:52:09.154Z,85.50
2018-06-17T20:54:37.401Z,85.60
2018-06-17T20:57:05.667Z,85.90
2018-06-17T20:59:33.937Z,86.20
2018-06-17T21:02:02.127Z,86.60
2018-06-17T21:04:30.613Z,87.10
2018-06-17T21:06:58.923Z,87.60
2018-06-17T21:09:27.177Z,88.00
2018-06-17T21:11:55.352Z,88.40
2018-06-17T21:14:23.617Z,88.70
2018-06-17T21:16:51.884Z,88.90
2018-06-17T21:19:25.459Z,89.30
2018-06-17T21:21:59.133Z,89.40
2018-06-17T21:24:32.537Z,89.60
2018-06-17T21:27:06.179Z,89.90
2018-06-17T21:29:34.419Z,90.00
2018-06-17T21:32:02.674Z,90.00
2018-06-17T21:34:30.889Z,90.20
2018-06-17T21:36:59.168Z,90.30
2018-06-17T21:39:27.459Z,90.30
2018-06-17T21:41:55.644Z,90.30
2018-06-17T21:45:53.336Z,90.40
2018-06-17T21:48:21.573Z,90.50
2018-06-17T21:50:49.849Z,90.60
2018-06-17T21:53:18.091Z,90.70
2018-06-17T21:55:46.358Z,90.90
2018-06-17T21:58:18.851Z,91.10
2018-06-17T22:00:47.091Z,91.30
2018-06-17T22:03:15.303Z,91.40
2018-06-17T22:05:43.545Z,91.50
2018-06-17T22:08:17.167Z,91.50
2018-06-17T22:13:18.779Z,91.70
2018-06-17T22:19:18.589Z,91.80
2018-06-17T22:21:46.858Z,92.00
2018-06-17T22:24:15.192Z,92.20
2018-06-17T22:26:43.460Z,92.30
2018-06-17T22:29:11.891Z,92.40
2018-06-17T22:31:40.152Z,92.50
2018-06-17T22:34:08.356Z,92.90
2018-06-17T22:36:36.634Z,92.70
2018-06-17T22:39:07.266Z,92.70
2018-06-17T22:41:35.452Z,93.00
2018-06-17T22:44:03.644Z,93.10
2018-06-17T22:46:31.904Z,93.30
2018-06-17T22:49:00.152Z,93.50
2018-06-17T22:54:30.622Z,93.70
2018-06-17T22:57:04.161Z,93.90
2018-06-17T22:59:37.854Z,93.90
2018-06-17T23:02:11.759Z,94.00
2018-06-17T23:04:45.338Z,93.90
2018-06-17T23:07:18.990Z,94.00
2018-06-17T23:09:48.643Z,94.10
2018-06-17T23:12:16.874Z,94.10
2018-06-17T23:14:45.123Z,94.10
2018-06-17T23:17:13.649Z,94.20
2018-06-17T23:19:41.869Z,94.40
2018-06-17T23:22:10.140Z,94.60
2018-06-17T23:24:38.393Z,94.70
2018-06-17T23:27:06.651Z,94.80
2018-06-17T23:29:34.926Z,94.90
2018-06-17T23:32:03.107Z,95.10
2018-06-17T23:34:31.299Z,95.10
2018-06-17T23:36:59.570Z,95.20
2018-06-17T23:39:27.812Z,95.10
2018-06-17T23:41:56.003Z,95.20
2018-06-17T23:46:57.843Z,95.10
2018-06-17T23:49:31.540Z,95.10
2018-06-17T23:54:07.379Z,94.90
2018-06-17T23:56:35.613Z,94.80
2018-06-17T23:59:03.883Z,94.50
